Atlanta, Georgia
Traffic Map
Current Weather Conditions
Atlanta, Georgia
Few Clouds
Few Clouds
64°
Feels Like: 64°
Wind Chill: 64° Ceiling: Unl
Heat Index: 64° Visibility: 10mi
Dew Point: 40° Wind: 3mph
Humidity: 41% Direction: 360° (N)
Pressure: 30.06in Gusts: 0mph
Raw Report DataKATL 301652Z 36003KT 10SM FEW055 18/04 A3006 RMK AO2 SLP179 T01780044
Traffic Incident Summary
Active as of:
Severity:
Category:
InformationThere was an issue retrieving the traffic information for this location. Please try a different location or try again shortly.
Advertisements
Track Severe Weather on mobile